Northfield, Illinois
Current Conditions -  °F | °C
As of 10:52 PM on Friday 28 Nov 2014 (Local Time) from KPWK Reporting Station
Clear Clear  
Wind Chill: 25°   Ceiling: Unl
Heat Index: 33°   Visibility: 7mi
Dew Point: 29°   Wind: 10mph
Humidity: 85%   Direction: 170°S
Pressure: 29.89"   Gusts: NA
Location:  42.1029°N, 87.7571°W
Report Text: KPWK 290452Z AUTO 17009KT 7SM CLR 01/M02 A2989 RMK AO2 SLP130 T00061017
Loading
Personal Weather Stations






























Interactive Weather Map New forecast layout! Learn more

10-Day Weather Forecast

Advertisements
Track Severe Weather on mobile